ASN logo
ASN Wikibase Occurrence # 221432
Last updated: 28 November 2019
This information is added by users of ASN. Neither ASN nor the Flight Safety Foundation are responsible for the completeness or correctness of this information. If you feel this information is incomplete or incorrect, you can submit corrected information.

Date:22-JAN-2019
Time:17:10 UTC
Type:Silhouette image of generic C510 model; specific model in this crash may look slightly different
Cessna 510 Citation Mustang
Owner/operator:Private
Registration: F-GMTJ
C/n / msn: 510-0222
Fatalities:Fatalities: 0 / Occupants:
Other fatalities:0
Aircraft damage: Minor
Category:Serious incident
Location:Paris Le Bourget (LBG) -   France
Phase: Landing
Nature:Unknown
Departure airport:Düsseldorf International Airport (DUS/EDDL)
Destination airport:Paris-Le Bourget Airport (LBG/LFPB)
Investigating agency: BEA
Narrative:
The Cessna 510 Citation Mustang touched down 800 metres before the displaced threshold of runway 25 at Paris-Le Bourget Airport in France.
The aircraft slid and travelled to the left and departed the left side of the 400 metres after the beginning of the runway and ran 400 metres over the grass before coming to a halt, 50 metres from the runway edge. The pilot resumed taxiing in the grass and came back onto the runway just before taxiway B1. He taxied to his parking spot Hotel 5 under his own power accompanied by the ARFF.

Weather reported about the time of the incident (1710Z):
LFPB 221700Z AUTO 17006KT 6000 OVC007 02/01 Q1003 BECMG 4000 BR
LFPB 221800Z AUTO 19010KT 7000 OVC006 02/00 Q1002 NOSIG

Sources:

https://www.bea.aero/en/investigation-reports/notified-events/detail/event/serious-incident-to-the-cessna-510-registered-f-gmtj-on-22012019-at-le-bourget/


Images:

Photo of F-GMTJ courtesy AirHistory.net


Blackbushe (EGLK / BBS)
15 May 2016; (c) Adrian Share


flight track based on ADS-B data; touchdown point not shown due to time between data points

Revision history:

Date/timeContributorUpdates
01-Feb-2019 19:40 harro Added
01-Feb-2019 19:48 harro Updated [Time, Narrative, Photo]

Corrections or additions? ... Edit this accident description